Time;durP1;ratioP1;P1;durP2;ratioP2;P2;SDS_P1;SDS_P2;PMS_P1;PMS_P2;Temp;Humidity;BMP_temperature;BMP_pressure;BME280_temperature;BME280_humidity;BME280_pressure;Samples;Min_cycle;Max_cycle;Signal;HPM_P1;HPM_P2
2022/11/03 00:01:39;;;;;;;5.60;1.30;;;7.40;99.90;;;;;;4997503;28;20607;-89
2022/11/03 00:04:06;;;;;;;6.43;1.60;;;7.40;99.90;;;;;;4996355;28;20283;-88
2022/11/03 00:06:32;;;;;;;7.53;1.30;;;7.40;99.90;;;;;;5004990;28;20282;-87
2022/11/03 00:09:00;;;;;;;9.93;1.50;;;7.40;99.90;;;;;;5016321;28;20195;-89
2022/11/03 00:11:26;;;;;;;7.53;1.50;;;7.30;99.90;;;;;;5000578;28;20187;-87
2022/11/03 00:13:52;;;;;;;4.97;1.60;;;7.20;99.90;;;;;;4988028;28;20680;-87
2022/11/03 00:16:18;;;;;;;6.93;1.30;;;7.20;99.90;;;;;;5015642;28;20198;-87
2022/11/03 00:18:43;;;;;;;6.33;1.50;;;7.10;99.90;;;;;;4998156;28;20227;-87
2022/11/03 00:21:12;;;;;;;5.37;1.50;;;6.90;99.90;;;;;;5006444;28;20825;-88
2022/11/03 00:23:40;;;;;;;8.73;1.77;;;6.90;99.90;;;;;;5003441;28;20196;-87
2022/11/03 00:26:12;;;;;;;3.90;1.30;;;6.90;99.90;;;;;;4996676;28;20203;-88
2022/11/03 00:28:40;;;;;;;3.63;1.30;;;6.90;99.90;;;;;;5004430;28;20187;-88
2022/11/03 00:31:12;;;;;;;3.60;1.43;;;6.90;99.90;;;;;;5007388;28;20542;-89
2022/11/03 00:33:39;;;;;;;5.37;1.67;;;6.80;99.90;;;;;;5008346;28;20957;-88
2022/11/03 00:36:06;;;;;;;7.40;1.70;;;6.80;99.90;;;;;;5007214;28;20221;-87
2022/11/03 00:38:32;;;;;;;4.33;1.53;;;6.80;99.90;;;;;;5012307;28;20208;-88
2022/11/03 00:41:03;;;;;;;4.50;1.30;;;6.80;99.90;;;;;;4998515;28;20176;-88
2022/11/03 00:43:31;;;;;;;5.27;1.67;;;6.70;99.90;;;;;;5011398;28;20282;-87
2022/11/03 00:45:57;;;;;;;6.00;1.57;;;6.80;99.90;;;;;;5005264;28;20180;-87
2022/11/03 00:48:29;;;;;;;7.30;1.70;;;6.80;99.90;;;;;;5010115;28;20242;-87
2022/11/03 00:51:01;;;;;;;4.83;1.17;;;6.80;99.90;;;;;;5016446;28;20168;-89
2022/11/03 00:53:28;;;;;;;5.10;1.50;;;6.80;99.90;;;;;;5012395;28;20252;-89
2022/11/03 00:55:54;;;;;;;5.63;1.67;;;6.80;99.90;;;;;;4996902;28;20188;-87
2022/11/03 00:58:20;;;;;;;4.00;1.40;;;6.90;99.90;;;;;;4995892;28;20222;-89
2022/11/03 01:00:46;;;;;;;6.93;1.40;;;6.80;99.90;;;;;;5009270;28;20524;-88
2022/11/03 01:03:13;;;;;;;3.87;1.50;;;6.80;99.90;;;;;;5001697;28;20198;-89
2022/11/03 01:08:34;;;;;;;7.03;1.33;;;6.80;99.90;;;;;;5001774;28;20194;-88
2022/11/03 01:14:00;;;;;;;9.00;1.10;;;6.80;99.90;;;;;;5006438;28;20303;-88
2022/11/03 01:16:26;;;;;;;6.00;1.70;;;6.80;99.90;;;;;;4999233;28;20266;-89
2022/11/03 01:18:52;;;;;;;3.60;1.20;;;6.80;99.90;;;;;;5014774;28;20264;-87
2022/11/03 01:21:25;;;;;;;9.33;1.57;;;6.80;99.90;;;;;;5006849;28;20262;-88
2022/11/03 01:23:51;;;;;;;5.17;1.30;;;6.80;99.90;;;;;;4998323;28;20202;-88
2022/11/03 01:26:18;;;;;;;3.30;1.47;;;6.80;99.90;;;;;;4997930;28;20270;-89
2022/11/03 01:28:45;;;;;;;7.70;1.73;;;6.80;99.90;;;;;;5007359;28;20195;-88
2022/11/03 01:31:18;;;;;;;4.20;1.50;;;6.80;99.90;;;;;;4999601;28;20321;-88
2022/11/03 01:33:45;;;;;;;3.53;1.40;;;6.80;99.90;;;;;;5008205;28;20198;-89
2022/11/03 01:36:12;;;;;;;3.03;1.40;;;6.80;99.90;;;;;;5014862;28;20646;-89
2022/11/03 01:38:38;;;;;;;3.73;1.20;;;6.70;99.90;;;;;;5015732;28;20264;-88
2022/11/03 01:41:06;;;;;;;5.00;1.30;;;6.60;99.90;;;;;;5015337;28;20266;-86
2022/11/03 01:43:34;;;;;;;4.37;1.30;;;6.60;99.90;;;;;;4999924;28;20187;-89
2022/11/03 01:46:21;;;;;;;6.53;1.60;;;6.50;99.90;;;;;;5001859;28;20179;-88
2022/11/03 01:49:06;;;;;;;7.57;1.63;;;6.50;99.90;;;;;;5001583;28;20691;-88
2022/11/03 01:51:33;;;;;;;4.67;1.60;;;6.50;99.90;;;;;;4995674;28;20218;-87
2022/11/03 01:54:08;;;;;;;4.50;1.43;;;6.70;99.90;;;;;;4995164;28;20218;-88
2022/11/03 01:56:37;;;;;;;4.67;1.50;;;6.70;99.90;;;;;;4986383;28;20528;-88
2022/11/03 01:59:03;;;;;;;5.23;1.40;;;6.80;99.90;;;;;;5006859;28;20217;-89
2022/11/03 02:01:30;;;;;;;8.40;1.63;;;6.80;99.90;;;;;;5005531;28;20285;-88
2022/11/03 02:04:02;;;;;;;4.87;1.27;;;6.80;99.90;;;;;;5015000;28;20189;-88
2022/11/03 02:06:29;;;;;;;4.40;1.50;;;6.80;99.90;;;;;;5015334;28;20644;-90
2022/11/03 02:09:02;;;;;;;4.10;1.10;;;6.70;99.90;;;;;;5014647;28;20199;-90
2022/11/03 02:14:14;;;;;;;6.33;1.40;;;6.60;99.90;;;;;;5004857;28;20189;-89
2022/11/03 02:16:49;;;;;;;6.37;1.57;;;6.60;99.90;;;;;;5009958;28;20191;-88
2022/11/03 02:19:39;;;;;;;4.10;1.60;;;6.50;99.90;;;;;;5386870;23;20261;-87
2022/11/03 02:22:32;;;;;;;5.03;1.20;;;6.60;99.90;;;;;;5031109;28;20192;-89
2022/11/03 02:25:10;;;;;;;5.97;1.70;;;6.50;99.90;;;;;;5016301;28;20180;-86
2022/11/03 02:27:36;;;;;;;5.20;1.50;;;6.60;99.90;;;;;;5053969;22;20267;-92
2022/11/03 02:30:03;;;;;;;6.30;1.60;;;6.60;99.90;;;;;;5005502;28;20213;-91
2022/11/03 02:32:51;;;;;;;6.77;1.43;;;6.60;99.90;;;;;;5013212;28;20259;-92
2022/11/03 02:36:00;;;;;;;3.87;1.40;;;6.60;99.90;;;;;;4974282;28;20231;-92
2022/11/03 02:38:29;;;;;;;5.77;1.27;;;6.60;99.90;;;;;;4918784;29;20214;-91
2022/11/03 02:40:59;;;;;;;7.07;1.67;;;6.70;99.90;;;;;;4932381;28;20218;-91
2022/11/03 02:43:28;;;;;;;5.57;1.47;;;6.70;99.90;;;;;;4986488;28;20617;-92
2022/11/03 02:45:55;;;;;;;4.60;1.50;;;6.60;99.90;;;;;;5013220;28;20207;-93
2022/11/03 02:48:23;;;;;;;11.63;1.83;;;6.70;99.90;;;;;;5012854;28;20203;-91
2022/11/03 02:50:49;;;;;;;7.00;1.40;;;6.60;99.90;;;;;;5013315;28;20583;-93
2022/11/03 02:53:16;;;;;;;5.43;1.40;;;6.70;99.90;;;;;;5013104;28;20440;-93
2022/11/03 02:56:15;;;;;;;3.07;1.43;;;6.60;99.90;;;;;;5013258;28;20179;-92
2022/11/03 02:58:44;;;;;;;11.70;1.40;;;6.60;99.90;;;;;;4998671;28;20215;-92
2022/11/03 03:01:45;;;;;;;2.70;1.17;;;6.70;99.90;;;;;;5012907;28;20175;-92
2022/11/03 03:04:21;;;;;;;8.23;1.47;;;6.70;99.90;;;;;;5013109;28;20241;-92
2022/11/03 03:06:56;;;;;;;6.13;1.50;;;6.70;99.90;;;;;;4977568;28;20243;-91
2022/11/03 03:09:42;;;;;;;9.00;1.47;;;6.70;99.90;;;;;;5017117;28;20179;-91
2022/11/03 03:12:11;;;;;;;4.93;1.50;;;6.60;99.90;;;;;;5017042;28;20167;-93
2022/11/03 03:14:46;;;;;;;8.23;1.47;;;6.60;99.90;;;;;;5016950;28;20253;-92
2022/11/03 03:17:26;;;;;;;5.53;1.50;;;6.70;99.90;;;;;;5017083;28;20198;-92
2022/11/03 03:20:02;;;;;;;7.63;1.63;;;6.70;99.90;;;;;;5017835;28;20175;-91
2022/11/03 03:22:29;;;;;;;5.67;1.30;;;6.60;99.90;;;;;;5017319;28;20715;-92
2022/11/03 03:25:11;;;;;;;4.37;1.53;;;6.60;99.90;;;;;;5017595;28;20174;-92
2022/11/03 03:27:42;;;;;;;6.57;1.43;;;6.60;99.90;;;;;;4999763;28;20242;-92
2022/11/03 03:30:08;;;;;;;5.53;1.50;;;6.70;99.90;;;;;;5017113;28;20199;-94
2022/11/03 03:32:40;;;;;;;3.83;1.20;;;6.70;99.90;;;;;;5016743;28;20179;-92
2022/11/03 03:35:12;;;;;;;3.50;1.07;;;6.70;99.90;;;;;;5017033;28;20179;-92
2022/11/03 03:37:42;;;;;;;5.70;1.50;;;6.70;99.90;;;;;;5015908;28;20207;-92
2022/11/03 03:40:11;;;;;;;8.43;1.97;;;6.70;99.90;;;;;;5016481;28;20172;-91
2022/11/03 03:42:38;;;;;;;4.70;1.30;;;6.60;99.90;;;;;;5015993;28;20183;-92
2022/11/03 03:45:07;;;;;;;4.07;1.40;;;6.70;99.90;;;;;;5016579;28;20178;-92
2022/11/03 03:47:34;;;;;;;11.63;1.63;;;6.70;99.90;;;;;;5016599;28;20233;-91
2022/11/03 03:50:00;;;;;;;5.43;1.40;;;6.70;99.90;;;;;;5016321;28;20188;-91
2022/11/03 03:52:28;;;;;;;8.23;1.23;;;6.70;99.90;;;;;;5016435;28;20175;-91
2022/11/03 03:54:55;;;;;;;4.30;1.17;;;6.70;99.90;;;;;;5016543;28;20167;-92
2022/11/03 03:57:23;;;;;;;7.20;1.57;;;6.70;99.90;;;;;;5015927;28;20203;-91
2022/11/03 03:59:49;;;;;;;7.83;1.60;;;6.70;99.90;;;;;;5016391;28;20259;-91
2022/11/03 04:02:15;;;;;;;5.03;1.20;;;6.60;99.90;;;;;;5016271;28;20199;-92
2022/11/03 04:04:41;;;;;;;5.80;1.30;;;6.60;99.90;;;;;;5016026;28;20710;-91
2022/11/03 04:09:52;;;;;;;5.60;1.40;;;6.70;99.90;;;;;;5017275;28;20239;-92
2022/11/03 04:23:19;;;;;;;2.40;1.20;;;6.50;99.90;;;;;;5016992;28;20183;-92
2022/11/03 04:25:51;;;;;;;7.10;1.23;;;6.50;99.90;;;;;;5015553;28;20164;-91
2022/11/03 04:28:18;;;;;;;5.93;1.40;;;6.60;99.90;;;;;;5015774;28;20221;-92
2022/11/03 04:30:44;;;;;;;5.97;1.10;;;6.60;99.90;;;;;;5015831;28;20278;-91
2022/11/03 04:33:16;;;;;;;6.83;1.30;;;6.60;99.90;;;;;;5015473;28;20207;-92
2022/11/03 04:35:43;;;;;;;7.27;1.40;;;6.60;99.90;;;;;;5015524;28;20182;-91
2022/11/03 04:38:22;;;;;;;5.43;1.40;;;6.60;99.90;;;;;;5014807;28;20546;-91
2022/11/03 04:40:56;;;;;;;6.90;1.20;;;6.70;99.90;;;;;;5015829;28;20171;-92
2022/11/03 04:43:32;;;;;;;7.77;2.90;;;6.70;99.90;;;;;;5015579;28;20177;-93
2022/11/03 04:45:58;;;;;;;7.00;1.23;;;6.80;99.90;;;;;;5015782;28;20171;-92
2022/11/03 04:48:28;;;;;;;4.17;1.07;;;6.90;99.90;;;;;;5015089;28;20265;-92
2022/11/03 04:50:59;;;;;;;4.53;1.13;;;6.90;99.90;;;;;;5015794;28;20179;-91
2022/11/03 04:53:30;;;;;;;5.40;1.43;;;7.00;99.90;;;;;;5015817;28;20631;-93
2022/11/03 04:55:56;;;;;;;6.63;1.50;;;7.00;99.90;;;;;;5015619;28;20199;-92
2022/11/03 04:58:25;;;;;;;7.57;1.67;;;7.00;99.90;;;;;;5015236;28;20214;-92
2022/11/03 05:00:53;;;;;;;5.40;1.20;;;7.10;99.90;;;;;;5015128;28;20194;-93
2022/11/03 05:03:33;;;;;;;4.83;1.27;;;7.20;99.90;;;;;;5015310;28;20168;-91
2022/11/03 05:06:09;;;;;;;9.93;1.77;;;7.20;99.90;;;;;;5014901;28;20159;-92
2022/11/03 05:08:34;;;;;;;9.73;1.47;;;7.30;99.90;;;;;;5014508;28;20749;-93
2022/11/03 05:11:04;;;;;;;9.53;1.43;;;7.30;99.90;;;;;;5015261;28;20262;-92
2022/11/03 05:13:30;;;;;;;7.63;1.73;;;7.40;99.90;;;;;;5014525;28;20179;-93
2022/11/03 05:16:03;;;;;;;8.07;1.40;;;7.40;99.90;;;;;;5015046;28;20202;-92
2022/11/03 05:18:35;;;;;;;6.90;1.20;;;7.40;99.90;;;;;;5014679;28;20202;-92
2022/11/03 05:21:12;;;;;;;7.07;1.57;;;7.50;99.90;;;;;;5014826;28;20174;-92
2022/11/03 05:23:45;;;;;;;3.73;1.20;;;7.50;99.90;;;;;;5014461;28;20590;-92
2022/11/03 05:26:17;;;;;;;12.23;1.50;;;7.50;99.90;;;;;;5014713;28;20223;-92
2022/11/03 05:28:47;;;;;;;8.00;1.30;;;7.50;99.90;;;;;;5014069;28;20203;-93
2022/11/03 05:31:20;;;;;;;8.03;1.37;;;7.50;99.90;;;;;;5014752;28;20222;-92
2022/11/03 05:33:48;;;;;;;13.63;2.53;;;7.40;99.90;;;;;;5014801;28;20174;-92
2022/11/03 05:36:21;;;;;;;9.90;2.10;;;7.40;99.90;;;;;;5014508;28;20210;-92
2022/11/03 05:38:47;;;;;;;5.13;1.43;;;7.30;99.90;;;;;;5014486;28;20203;-92
2022/11/03 05:41:28;;;;;;;6.07;1.37;;;7.30;99.90;;;;;;5014770;28;20167;-91
2022/11/03 05:44:25;;;;;;;6.40;1.30;;;7.20;99.90;;;;;;5015357;28;20191;-92
2022/11/03 05:46:51;;;;;;;11.30;1.97;;;7.20;99.90;;;;;;5013863;28;20200;-92
2022/11/03 05:49:19;;;;;;;11.23;1.67;;;7.20;99.90;;;;;;5014745;28;20554;-92
2022/11/03 05:51:46;;;;;;;8.20;1.47;;;7.20;99.90;;;;;;5014793;28;20635;-92
2022/11/03 05:54:23;;;;;;;5.93;1.30;;;7.20;99.90;;;;;;5012299;28;20209;-93
2022/11/03 05:56:50;;;;;;;6.87;1.60;;;7.20;99.90;;;;;;5014093;28;20207;-93
2022/11/03 05:59:21;;;;;;;9.03;1.83;;;7.20;99.90;;;;;;5014217;28;20203;-92
2022/11/03 06:01:48;;;;;;;8.30;1.40;;;7.20;99.90;;;;;;5013991;28;20163;-92
2022/11/03 06:04:36;;;;;;;6.27;1.53;;;7.20;99.90;;;;;;5014213;28;20221;-93
2022/11/03 06:07:13;;;;;;;8.70;1.73;;;7.20;99.90;;;;;;5014339;28;20195;-93
2022/11/03 06:09:40;;;;;;;5.37;1.50;;;7.30;99.90;;;;;;5003590;28;20190;-92
2022/11/03 06:12:16;;;;;;;5.90;1.33;;;7.20;99.90;;;;;;5014457;28;20168;-93
2022/11/03 06:14:41;;;;;;;6.23;1.70;;;7.20;99.90;;;;;;5013524;28;20545;-91
2022/11/03 06:17:22;;;;;;;7.03;1.67;;;7.30;99.90;;;;;;5013887;28;20200;-93
2022/11/03 06:19:52;;;;;;;7.83;1.53;;;7.20;99.90;;;;;;5013674;28;20210;-92
2022/11/03 06:22:22;;;;;;;5.10;1.53;;;7.20;99.90;;;;;;5013653;28;20225;-91
2022/11/03 06:24:51;;;;;;;6.97;1.40;;;7.20;99.90;;;;;;5013637;28;20175;-92
2022/11/03 06:27:23;;;;;;;4.43;1.23;;;7.20;99.90;;;;;;5012819;28;20234;-92
2022/11/03 06:30:44;;;;;;;7.50;1.60;;;7.30;99.90;;;;;;5013586;28;20236;-94
2022/11/03 06:33:34;;;;;;;3.57;1.40;;;7.20;99.90;;;;;;4973222;28;20208;-92
2022/11/03 06:36:31;;;;;;;7.27;1.63;;;7.30;99.90;;;;;;4978221;28;20161;-92
2022/11/03 06:39:01;;;;;;;6.73;1.87;;;7.30;99.90;;;;;;5011890;28;20215;-91
2022/11/03 06:41:31;;;;;;;6.67;1.50;;;7.20;99.90;;;;;;5010131;28;20278;-92
2022/11/03 06:44:16;;;;;;;4.33;1.37;;;7.30;99.90;;;;;;5009028;28;20179;-93
2022/11/03 06:46:42;;;;;;;7.03;1.57;;;7.30;99.90;;;;;;5013235;28;20599;-92
2022/11/03 06:49:28;;;;;;;2.90;1.23;;;7.30;99.90;;;;;;5013503;28;20171;-91
2022/11/03 06:52:07;;;;;;;5.00;1.40;;;7.30;99.90;;;;;;5013410;28;20217;-92
2022/11/03 06:54:33;;;;;;;4.07;1.40;;;7.30;99.90;;;;;;5013397;28;20258;-93
2022/11/03 06:57:01;;;;;;;7.43;1.40;;;7.40;99.90;;;;;;5013065;28;20337;-91
2022/11/03 06:59:27;;;;;;;9.40;1.40;;;7.40;99.90;;;;;;5013405;28;20199;-92
2022/11/03 07:01:54;;;;;;;7.67;1.40;;;7.50;99.90;;;;;;5013719;28;20614;-91
2022/11/03 07:04:27;;;;;;;4.63;1.17;;;7.60;99.90;;;;;;5013300;28;20639;-92
2022/11/03 07:06:58;;;;;;;6.37;1.67;;;7.60;99.90;;;;;;5013344;28;20614;-92
2022/11/03 07:09:27;;;;;;;10.80;1.50;;;7.70;99.90;;;;;;5013699;28;20194;-93
2022/11/03 07:11:56;;;;;;;8.17;1.50;;;7.80;99.90;;;;;;5013658;28;20168;-90
2022/11/03 07:14:26;;;;;;;9.60;1.73;;;7.80;99.90;;;;;;5013391;28;20512;-92
2022/11/03 07:17:01;;;;;;;4.83;1.90;;;7.90;99.90;;;;;;5012823;28;20199;-93
2022/11/03 07:19:40;;;;;;;5.83;1.33;;;8.00;99.90;;;;;;5013009;28;20226;-93
2022/11/03 07:22:17;;;;;;;3.70;1.77;;;8.00;99.90;;;;;;5013139;28;20258;-91
2022/11/03 07:24:45;;;;;;;4.67;1.33;;;8.00;99.90;;;;;;5012979;28;20167;-92
2022/11/03 07:27:26;;;;;;;7.03;1.40;;;8.10;99.90;;;;;;5013514;28;20316;-91
2022/11/03 07:30:15;;;;;;;4.07;1.27;;;8.10;99.90;;;;;;5013367;28;20559;-92
2022/11/03 07:32:41;;;;;;;3.38;1.42;;;8.20;99.90;;;;;;5013343;28;20164;-91
2022/11/03 07:35:15;;;;;;;4.30;1.30;;;8.20;99.90;;;;;;5013410;28;20187;-93
2022/11/03 07:37:44;;;;;;;5.30;1.50;;;8.20;99.90;;;;;;5013241;28;20270;-91
2022/11/03 07:40:21;;;;;;;4.97;1.00;;;8.30;99.90;;;;;;5012923;28;20195;-92
2022/11/03 07:42:46;;;;;;;7.40;1.17;;;8.40;99.90;;;;;;5012813;28;20186;-92
2022/11/03 07:45:39;;;;;;;9.37;1.60;;;8.40;99.90;;;;;;5013341;28;20163;-92
2022/11/03 07:48:22;;;;;;;4.93;1.60;;;8.50;99.90;;;;;;5012741;28;20201;-91
2022/11/03 07:50:54;;;;;;;5.20;1.33;;;8.60;99.90;;;;;;5013133;28;20258;-92
2022/11/03 07:53:30;;;;;;;7.83;1.80;;;8.70;99.90;;;;;;5016543;28;20180;-92
2022/11/03 07:55:57;;;;;;;8.63;1.52;;;8.70;99.90;;;;;;5016462;28;20210;-92
2022/11/03 07:58:32;;;;;;;11.47;1.97;;;8.80;99.90;;;;;;5015770;28;20203;-90
2022/11/03 08:01:00;;;;;;;10.00;1.47;;;8.90;99.90;;;;;;5015560;28;20167;-90
2022/11/03 08:03:43;;;;;;;10.20;1.40;;;8.90;99.90;;;;;;5014691;28;20172;-90
2022/11/03 08:06:08;;;;;;;10.25;1.60;;;9.00;99.90;;;;;;5015008;28;20174;-88
2022/11/03 08:08:34;;;;;;;11.32;1.77;;;9.00;99.90;;;;;;5013932;28;20172;-86
2022/11/03 08:11:00;;;;;;;11.88;1.95;;;9.10;99.90;;;;;;5004931;28;20662;-87
2022/11/03 08:13:27;;;;;;;10.17;1.83;;;9.20;99.90;;;;;;4975557;28;20172;-86
2022/11/03 08:15:53;;;;;;;5.45;1.50;;;9.30;99.90;;;;;;4994463;28;20271;-87
2022/11/03 08:18:19;;;;;;;7.18;2.03;;;9.40;99.90;;;;;;4994888;28;20292;-87
2022/11/03 08:20:45;;;;;;;9.55;2.00;;;9.50;99.90;;;;;;4994909;28;20650;-89
2022/11/03 08:23:11;;;;;;;5.82;1.48;;;9.50;99.90;;;;;;4995037;28;20168;-89
2022/11/03 08:25:37;;;;;;;6.05;1.60;;;9.50;99.90;;;;;;4994726;28;20555;-89
2022/11/03 08:28:03;;;;;;;4.20;1.45;;;9.60;99.90;;;;;;4994484;28;20231;-89
2022/11/03 08:30:29;;;;;;;8.15;1.90;;;9.70;99.90;;;;;;4995122;28;20555;-89
2022/11/03 08:32:55;;;;;;;6.15;1.45;;;9.80;99.90;;;;;;4995050;28;20168;-90
2022/11/03 08:35:21;;;;;;;7.35;1.67;;;9.80;99.90;;;;;;4994938;28;20266;-89
2022/11/03 08:37:47;;;;;;;8.00;1.75;;;9.90;99.90;;;;;;4994094;28;20239;-90
2022/11/03 08:40:13;;;;;;;4.60;1.55;;;10.00;99.90;;;;;;4994599;28;20588;-88
2022/11/03 08:42:39;;;;;;;7.35;1.10;;;10.00;99.90;;;;;;4994655;28;20176;-89
2022/11/03 08:45:05;;;;;;;8.40;1.58;;;10.10;99.90;;;;;;4994377;28;20192;-90
2022/11/03 08:47:31;;;;;;;6.65;1.30;;;10.10;99.90;;;;;;4994643;28;20227;-89
2022/11/03 08:50:00;;;;;;;8.98;1.85;;;10.20;99.90;;;;;;4994267;28;20202;-87
2022/11/03 08:52:26;;;;;;;5.93;1.50;;;10.20;99.90;;;;;;4994808;28;20192;-89
2022/11/03 08:54:52;;;;;;;9.85;1.73;;;10.30;99.90;;;;;;5003774;28;20191;-90
2022/11/03 08:57:17;;;;;;;6.63;1.33;;;10.30;99.90;;;;;;5013979;28;20201;-89
2022/11/03 08:59:43;;;;;;;5.82;1.27;;;10.40;99.90;;;;;;5013749;28;20249;-91
2022/11/03 09:02:15;;;;;;;4.40;1.65;;;10.50;99.90;;;;;;5015380;28;20533;-90
2022/11/03 09:04:42;;;;;;;10.88;1.48;;;10.50;99.90;;;;;;5013706;28;20171;-92
2022/11/03 09:07:09;;;;;;;4.60;1.23;;;10.60;99.90;;;;;;5013959;28;20195;-90
2022/11/03 09:09:35;;;;;;;5.22;1.40;;;10.60;99.90;;;;;;5013974;28;20182;-90
2022/11/03 09:12:01;;;;;;;6.15;1.35;;;10.60;99.90;;;;;;5013621;28;20171;-91
2022/11/03 09:14:27;;;;;;;7.20;1.73;;;10.60;99.90;;;;;;5012700;28;20672;-90
2022/11/03 09:16:53;;;;;;;7.38;1.50;;;10.70;99.90;;;;;;5013576;28;20608;-91
2022/11/03 09:19:18;;;;;;;6.55;1.70;;;10.70;99.90;;;;;;5010171;28;20696;-91
2022/11/03 09:21:44;;;;;;;6.30;1.35;;;10.70;99.90;;;;;;4974378;28;20220;-91
2022/11/03 09:24:10;;;;;;;6.07;1.70;;;10.70;99.90;;;;;;4974105;28;20185;-91
2022/11/03 09:26:37;;;;;;;6.88;1.48;;;10.70;99.90;;;;;;5005554;28;20285;-90
2022/11/03 09:29:03;;;;;;;14.00;1.80;;;10.80;99.90;;;;;;5013304;28;20343;-91
2022/11/03 09:31:29;;;;;;;8.45;1.55;;;10.80;99.90;;;;;;5012998;28;20187;-91
2022/11/03 09:33:56;;;;;;;4.82;1.50;;;10.80;99.90;;;;;;5013096;28;20187;-91
2022/11/03 09:36:25;;;;;;;5.78;1.23;;;10.80;99.90;;;;;;4993196;28;20188;-91
2022/11/03 09:38:52;;;;;;;10.35;1.58;;;10.80;99.90;;;;;;4993921;28;20349;-91
2022/11/03 09:41:17;;;;;;;6.53;1.85;;;10.90;99.90;;;;;;5003534;28;20211;-91
2022/11/03 09:43:45;;;;;;;6.22;1.50;;;11.00;99.90;;;;;;5012823;28;20213;-91
2022/11/03 09:46:12;;;;;;;7.65;1.67;;;11.20;99.90;;;;;;5013175;28;20159;-90
2022/11/03 09:48:38;;;;;;;9.63;1.35;;;11.20;99.90;;;;;;5013165;28;20172;-92
2022/11/03 09:51:04;;;;;;;7.00;1.50;;;11.30;99.90;;;;;;5012519;28;20270;-91
2022/11/03 09:53:30;;;;;;;4.57;1.33;;;11.40;99.90;;;;;;5012741;28;20175;-91
2022/11/03 09:55:56;;;;;;;10.73;1.88;;;11.50;99.90;;;;;;5013695;28;20190;-92
2022/11/03 09:58:25;;;;;;;7.75;1.80;;;11.50;99.90;;;;;;5014089;28;20682;-90
2022/11/03 10:00:53;;;;;;;6.05;1.40;;;11.50;99.90;;;;;;4996454;28;20203;-91
2022/11/03 10:03:20;;;;;;;4.78;1.38;;;11.50;99.90;;;;;;5012570;28;20229;-91
2022/11/03 10:05:47;;;;;;;5.90;1.50;;;11.60;99.90;;;;;;5007791;28;20281;-91
2022/11/03 10:08:29;;;;;;;8.43;1.45;;;11.60;99.90;;;;;;5012382;28;20554;-91
2022/11/03 10:10:55;;;;;;;12.65;1.65;;;11.70;99.90;;;;;;5012604;28;20684;-91
2022/11/03 10:13:37;;;;;;;4.35;1.38;;;11.80;99.90;;;;;;5012365;28;20173;-91
2022/11/03 10:16:07;;;;;;;6.25;2.00;;;11.90;99.90;;;;;;5012477;28;20237;-91
2022/11/03 10:18:35;;;;;;;7.57;1.55;;;11.90;99.90;;;;;;5012436;28;20225;-92
2022/11/03 10:21:07;;;;;;;4.32;1.30;;;12.00;99.90;;;;;;5012524;28;20253;-89
2022/11/03 10:23:32;;;;;;;6.10;1.30;;;12.10;99.90;;;;;;5012684;28;20165;-90
2022/11/03 10:26:19;;;;;;;7.32;1.30;;;12.20;99.90;;;;;;5012199;28;20637;-91
2022/11/03 10:29:03;;;;;;;9.32;1.48;;;12.40;99.90;;;;;;5012531;28;20179;-89
2022/11/03 10:31:38;;;;;;;8.02;1.50;;;12.50;99.90;;;;;;4993135;28;20283;-91
2022/11/03 10:34:22;;;;;;;6.85;1.58;;;12.60;99.90;;;;;;4967053;28;20203;-90
2022/11/03 10:36:49;;;;;;;8.82;2.13;;;12.70;99.90;;;;;;4992591;28;20200;-89
2022/11/03 10:39:29;;;;;;;4.43;1.20;;;12.80;99.90;;;;;;4995741;28;20546;-90
2022/11/03 10:42:00;;;;;;;4.45;1.20;;;12.80;99.90;;;;;;5012291;28;20187;-90
2022/11/03 10:44:28;;;;;;;9.77;1.70;;;12.90;99.90;;;;;;5012615;28;20622;-90
2022/11/03 10:47:05;;;;;;;8.00;1.60;;;12.90;99.90;;;;;;5012402;28;20215;-90
2022/11/03 10:49:34;;;;;;;5.45;1.58;;;12.90;99.90;;;;;;5012383;28;20237;-90
2022/11/03 10:52:24;;;;;;;6.40;1.70;;;12.90;99.90;;;;;;4999929;28;20626;-91
2022/11/03 10:54:53;;;;;;;10.32;1.67;;;12.90;99.90;;;;;;4992763;28;20178;-90
2022/11/03 10:57:20;;;;;;;8.93;1.45;;;12.90;99.90;;;;;;4992617;28;20200;-91
2022/11/03 10:59:49;;;;;;;8.02;1.70;;;12.90;99.90;;;;;;4992665;28;20214;-91
2022/11/03 11:02:30;;;;;;;5.55;1.30;;;13.00;99.90;;;;;;4992440;28;20188;-90
2022/11/03 11:05:02;;;;;;;5.03;1.60;;;13.10;99.90;;;;;;4992830;28;20204;-91
2022/11/03 11:07:37;;;;;;;5.10;1.40;;;13.20;99.90;;;;;;4992405;28;20215;-91
2022/11/03 11:10:27;;;;;;;8.35;1.58;;;13.30;99.90;;;;;;4992858;28;20171;-91
2022/11/03 11:13:18;;;;;;;5.05;1.25;;;13.40;99.90;;;;;;4985457;28;20180;-91
2022/11/03 11:15:44;;;;;;;3.08;1.17;;;13.50;99.90;;;;;;5012179;28;20183;-92
2022/11/03 11:18:28;;;;;;;5.07;1.30;;;13.60;99.90;;;;;;5013162;28;20203;-92
2022/11/03 11:21:18;;;;;;;3.30;1.20;;;13.80;99.90;;;;;;5012168;28;20167;-91
2022/11/03 11:23:46;;;;;;;6.00;1.20;;;13.90;99.90;;;;;;5011917;28;20175;-92
2022/11/03 11:26:25;;;;;;;8.48;1.42;;;13.90;99.90;;;;;;5000287;28;20227;-91
2022/11/03 11:29:09;;;;;;;3.08;0.98;;;14.10;99.90;;;;;;4996265;28;20198;-91
2022/11/03 11:31:44;;;;;;;4.35;1.38;;;14.20;99.90;;;;;;4996241;28;20172;-91
2022/11/03 11:34:34;;;;;;;6.68;1.50;;;14.30;99.90;;;;;;4996703;28;20176;-91
2022/11/03 11:37:00;;;;;;;6.70;1.48;;;14.40;99.90;;;;;;4996162;28;20743;-91
2022/11/03 11:39:25;;;;;;;3.50;1.10;;;14.50;99.90;;;;;;4997244;28;20207;-91
2022/11/03 11:42:15;;;;;;;6.60;1.38;;;14.50;99.90;;;;;;4996117;28;20175;-89
2022/11/03 11:44:41;;;;;;;3.85;1.30;;;14.60;99.90;;;;;;4996001;28;20283;-90
2022/11/03 11:47:43;;;;;;;2.13;1.00;;;14.50;99.90;;;;;;4995922;28;20287;-90
2022/11/03 11:50:09;;;;;;;4.38;1.55;;;14.50;99.90;;;;;;4995919;28;20175;-90
2022/11/03 11:52:46;;;;;;;7.70;1.58;;;14.50;99.90;;;;;;4995448;28;20184;-91
2022/11/03 11:55:36;;;;;;;3.92;1.73;;;14.50;99.90;;;;;;4995758;28;20624;-90
2022/11/03 11:58:04;;;;;;;6.22;1.40;;;14.70;99.90;;;;;;4990318;28;20219;-90
2022/11/03 12:00:33;;;;;;;7.25;1.25;;;14.70;99.90;;;;;;4995806;28;20176;-90
2022/11/03 12:03:05;;;;;;;2.92;1.20;;;14.70;99.90;;;;;;4995997;28;20168;-91
2022/11/03 12:05:33;;;;;;;6.75;1.77;;;14.70;99.90;;;;;;4996026;28;20168;-91
2022/11/03 12:07:59;;;;;;;7.25;1.75;;;14.70;99.90;;;;;;4995452;28;20191;-91
2022/11/03 12:10:31;;;;;;;5.25;1.30;;;14.60;99.90;;;;;;5011044;28;20282;-90
2022/11/03 12:12:59;;;;;;;2.45;1.10;;;14.50;99.90;;;;;;5014954;28;20187;-91
2022/11/03 12:15:56;;;;;;;5.65;1.25;;;14.40;99.90;;;;;;5015435;28;20665;-90
2022/11/03 12:18:39;;;;;;;4.07;1.33;;;14.40;99.90;;;;;;5014539;28;20259;-90
2022/11/03 12:21:08;;;;;;;4.88;1.05;;;14.30;99.90;;;;;;5010074;28;20211;-90
2022/11/03 12:23:42;;;;;;;3.55;1.23;;;14.30;99.90;;;;;;4996701;28;20160;-92
2022/11/03 12:26:31;;;;;;;5.55;1.70;;;14.30;99.90;;;;;;4995605;28;20223;-91
2022/11/03 12:28:57;;;;;;;5.82;1.63;;;14.20;99.90;;;;;;4986071;28;20188;-89
2022/11/03 12:31:24;;;;;;;6.35;1.65;;;14.10;99.90;;;;;;4975128;28;20187;-90
2022/11/03 12:33:51;;;;;;;8.45;1.45;;;14.10;99.90;;;;;;4975239;28;20204;-89
2022/11/03 12:36:16;;;;;;;6.25;1.52;;;14.10;99.90;;;;;;4994295;28;20199;-89
2022/11/03 12:38:42;;;;;;;5.65;1.70;;;14.20;99.90;;;;;;4994088;28;20204;-89
2022/11/03 12:41:20;;;;;;;6.70;1.55;;;14.30;99.90;;;;;;4994536;28;20215;-89
2022/11/03 12:43:50;;;;;;;5.55;1.63;;;14.40;99.90;;;;;;4994742;28;20163;-89
2022/11/03 12:46:17;;;;;;;5.93;1.50;;;14.30;99.90;;;;;;4994175;28;20192;-90
2022/11/03 12:48:46;;;;;;;9.05;1.55;;;14.40;99.90;;;;;;4994333;28;20168;-89
2022/11/03 12:51:22;;;;;;;5.25;1.40;;;14.30;99.90;;;;;;4994363;28;20238;-89
2022/11/03 12:53:49;;;;;;;5.03;1.45;;;14.30;99.90;;;;;;4994375;28;20187;-89
2022/11/03 12:56:16;;;;;;;7.47;1.50;;;14.20;99.90;;;;;;4994273;28;20640;-89
2022/11/03 12:58:46;;;;;;;6.00;1.45;;;14.10;99.90;;;;;;4994383;28;20537;-89
2022/11/03 13:01:13;;;;;;;8.63;1.48;;;14.10;99.90;;;;;;4994019;28;20483;-89
2022/11/03 13:03:39;;;;;;;8.57;1.58;;;14.10;99.90;;;;;;4994436;28;20186;-89
2022/11/03 13:06:08;;;;;;;7.90;1.50;;;14.00;99.90;;;;;;5010701;28;20273;-88
2022/11/03 13:08:36;;;;;;;6.07;1.45;;;14.00;99.90;;;;;;5013719;28;20229;-89
2022/11/03 13:11:02;;;;;;;4.53;1.40;;;14.00;99.90;;;;;;5013561;28;20329;-90
2022/11/03 13:13:28;;;;;;;2.58;1.10;;;14.00;99.90;;;;;;5014041;28;20370;-88
2022/11/03 13:15:54;;;;;;;3.10;1.50;;;14.00;99.90;;;;;;5013749;28;20277;-89
2022/11/03 13:18:21;;;;;;;13.70;1.48;;;13.90;99.90;;;;;;5013197;28;20552;-89
2022/11/03 13:20:47;;;;;;;7.30;1.52;;;13.90;99.90;;;;;;5013233;28;20175;-89
2022/11/03 13:23:13;;;;;;;6.13;1.55;;;13.90;99.90;;;;;;5013156;28;20186;-88
2022/11/03 13:25:39;;;;;;;5.43;1.40;;;13.90;99.90;;;;;;5012898;28;20183;-88
2022/11/03 13:28:05;;;;;;;8.18;1.58;;;13.80;99.90;;;;;;5012707;28;20247;-88
2022/11/03 13:30:32;;;;;;;4.28;1.55;;;13.80;99.90;;;;;;5013137;28;20867;-89
2022/11/03 13:32:58;;;;;;;6.20;1.63;;;13.80;99.90;;;;;;5014338;28;20160;-89
2022/11/03 13:35:24;;;;;;;4.07;1.52;;;13.70;99.90;;;;;;5013074;28;20198;-88
2022/11/03 13:37:50;;;;;;;8.82;2.03;;;13.70;99.90;;;;;;5012934;28;20287;-87